Date,TemperatureHighF,TemperatureAvgF,TemperatureLowF,DewpointHighF,DewpointAvgF,DewpointLowF,HumidityHigh,HumidityAvg,HumidityLow,PressureMaxIn,PressureMinIn,WindSpeedMaxMPH,WindSpeedAvgMPH,GustSpeedMaxMPH,PrecipitationSumIn
2013-8-18,69.5,63.4,60.1,61.2,58.3,56.3,88,84,74,29.84,29.80,12,1,0,0.00
2013-8-19,68.3,61.9,58.2,59.7,57.8,55.9,94,87,74,29.93,29.82,14,2,0,0.00
2013-8-20,68.2,61.7,58.8,59.5,57.3,55.1,93,86,73,29.93,29.87,14,3,0,0.00
2013-8-21,68.0,61.6,57.7,58.0,55.8,54.5,90,82,68,29.97,29.90,15,2,0,0.00
2013-8-22,68.5,61.8,58.3,57.2,55.3,54.1,88,80,66,30.01,29.91,18,3,0,0.00
2013-8-23,67.6,60.9,57.0,57.7,55.3,53.5,89,82,70,29.96,29.84,13,2,0,0.00
2013-8-24,69.7,62.3,57.5,59.9,57.0,54.0,90,83,69,29.93,29.86,13,2,0,0.00
2013-8-25,71.7,65.3,61.4,63.7,60.6,57.9,92,85,75,29.97,29.90,16,2,0,0.00
2013-8-26,70.7,64.1,59.7,60.4,58.0,56.6,92,81,67,30.04,29.92,12,2,0,0.00
2013-8-27,70.6,62.8,56.6,61.8,57.9,54.0,93,84,69,29.93,29.85,15,1,0,0.00
2013-8-28,72.4,64.3,59.7,63.7,60.1,57.1,93,87,73,29.97,29.88,16,2,0,0.00
2013-8-29,70.5,65.1,60.8,63.1,60.9,58.8,93,87,76,30.09,29.97,11,2,0,0.00
2013-8-30,77.8,68.1,62.6,64.1,61.7,58.7,93,81,61,30.06,29.93,10,1,0,0.00
2013-8-31,70.7,65.4,59.9,61.8,59.3,56.7,90,81,72,30.01,29.92,14,3,0,0.00
2013-9-1,69.3,63.4,59.0,62.5,58.9,55.4,91,85,74,29.98,29.90,8,2,0,0.00
2013-9-2,73.8,66.2,62.0,64.1,61.9,59.4,94,86,71,29.98,29.90,14,2,0,0.00
2013-9-3,63.8,63.0,61.9,60.7,60.0,58.9,91,90,89,29.99,29.97,8,1,0,0.00
2013-9-5,73.7,68.4,63.4,62.0,59.4,55.6,83,73,62,30.03,29.96,12,1,0,0.00
2013-9-6,79.8,72.6,64.1,61.2,59.7,58.3,84,65,50,29.99,29.84,8,1,0,0.00
2013-9-7,79.3,66.5,56.8,62.4,57.1,51.8,91,73,47,29.89,29.84,8,1,0,0.00
2013-9-8,68.2,61.0,57.0,60.4,57.2,54.6,93,87,75,29.90,29.79,15,1,0,0.00
2013-9-9,69.8,61.3,56.0,60.2,57.4,54.0,94,87,70,29.84,29.75,14,1,0,0.00
2013-9-10,69.7,63.5,58.7,61.3,59.1,56.7,93,86,73,29.92,29.76,16,3,0,0.00
2013-9-11,71.2,65.2,62.3,60.7,59.0,57.7,88,81,69,30.02,29.91,15,2,0,0.00
2013-9-12,70.7,63.8,59.9,61.6,59.5,56.8,93,86,71,30.00,29.91,17,1,0,0.00
2013-9-13,70.2,61.9,58.1,59.8,56.7,54.8,92,83,67,29.94,29.79,14,2,0,0.00
2013-9-14,70.8,61.4,56.7,59.7,56.1,53.8,91,83,67,29.85,29.77,13,2,0,0.00
2013-9-15,71.3,62.9,56.8,60.1,57.0,53.0,92,81,64,29.89,29.80,15,2,0,0.00
2013-9-16,75.2,64.4,59.6,60.9,58.6,55.3,92,82,59,29.92,29.80,12,1,0,0.00
2013-9-17,74.3,64.4,57.7,59.3,56.4,53.8,91,76,52,29.90,29.84,14,2,0,0.00
2013-9-18,68.7,59.0,53.3,57.3,52.7,49.8,88,80,62,29.93,29.89,7,0,0,0.00
2013-9-19,71.7,65.6,57.4,57.5,55.1,51.9,86,70,57,29.83,29.77,9,1,0,0.00
2013-9-20,71.0,62.3,52.9,62.4,57.3,49.6,92,84,74,29.89,29.80,14,2,0,0.00
2013-9-21,66.5,63.0,58.0,61.4,58.5,54.1,93,85,78,29.92,29.82,14,2,0,0.54
2013-9-22,68.3,61.2,52.1,58.8,54.6,49.8,94,80,62,30.02,29.91,10,1,0,0.01
2013-9-23,75.5,63.4,52.6,62.6,56.5,49.5,93,79,58,30.04,29.95,11,1,0,0.00
2013-9-24,74.3,62.9,56.6,60.0,55.7,50.2,93,78,52,30.01,29.93,17,2,0,0.00
2013-9-25,70.8,61.5,53.0,54.6,49.1,45.6,82,65,45,29.95,29.84,14,2,0,0.00
2013-9-26,70.8,60.5,50.8,53.9,47.2,39.6,84,63,35,30.00,29.86,14,1,0,0.00
2013-9-27,75.0,61.5,49.4,54.3,47.4,41.7,86,62,34,30.11,30.00,13,1,0,0.00
2013-9-28,73.0,60.7,48.9,57.2,50.3,42.7,85,70,45,30.11,30.02,7,1,0,0.00
2013-9-29,72.2,63.6,56.9,62.6,58.6,53.6,92,84,68,30.13,30.07,8,1,0,0.00
2013-9-30,71.5,64.2,56.7,64.0,60.4,46.6,96,88,63,30.09,29.99,12,1,0,0.02
2013-10-1,70.3,60.9,51.3,54.8,50.8,45.6,90,70,54,30.04,29.93,11,1,0,0.00
2013-10-2,71.0,59.6,51.2,56.4,51.7,47.1,94,76,51,30.03,29.95,11,1,0,0.00
2013-10-3,74.2,63.1,52.6,52.8,41.0,31.1,78,48,22,30.10,29.96,18,2,0,0.00
2013-10-4,80.5,69.6,57.3,48.9,35.4,30.8,60,30,17,30.11,29.97,19,2,0,0.00
2013-10-5,82.9,68.8,54.7,51.2,39.8,27.3,63,37,19,30.20,30.10,15,1,0,0.00
2013-10-6,84.6,63.9,48.5,52.3,43.6,38.0,72,50,20,30.14,30.00,7,0,0,0.00
2013-10-7,73.0,60.9,50.8,54.3,47.1,40.6,84,61,36,30.01,29.90,11,0,0,0.00
2013-10-8,67.8,56.9,48.4,54.2,50.0,45.3,91,78,52,29.93,29.73,10,1,0,0.00
2013-10-9,65.2,57.5,51.5,55.1,49.1,46.6,87,74,52,29.79,29.65,12,1,0,0.00
2013-10-10,62.2,54.8,49.0,53.2,49.8,46.0,92,84,71,30.04,29.78,13,2,0,0.00
2013-10-11,58.1,53.0,49.5,51.2,49.3,46.6,92,87,76,30.12,30.01,13,1,0,0.00
2013-10-12,60.7,53.9,47.6,52.9,49.2,45.1,93,84,72,30.04,29.93,12,1,0,0.00
2013-10-13,68.1,56.3,46.2,54.8,49.2,43.4,91,78,50,30.09,29.95,10,1,0,0.00
2013-10-14,77.3,58.4,44.9,52.0,47.0,41.8,94,69,33,30.14,30.02,9,0,0,0.00
2013-10-15,81.2,61.1,46.0,52.4,43.2,34.8,85,57,19,30.06,29.96,14,1,0,0.00
2013-10-16,81.0,61.2,46.8,51.2,44.4,39.3,80,57,24,30.11,30.00,6,0,0,0.00
2013-10-17,77.3,59.9,47.4,52.5,45.2,40.1,85,61,31,30.10,29.99,7,0,0,0.00
2013-10-18,63.2,54.8,48.4,53.9,50.2,45.9,93,85,68,30.08,30.01,9,1,0,0.00
2013-10-19,70.0,55.2,45.6,55.4,49.7,43.7,94,83,55,30.10,30.02,6,1,0,0.01
2013-10-20,59.9,53.2,50.0,53.0,50.0,48.1,94,89,76,30.05,29.94,12,1,0,0.01
2013-10-21,59.0,53.3,50.7,52.1,49.8,48.4,93,88,77,30.04,29.95,11,1,0,0.00
2013-10-22,59.8,53.0,49.9,53.5,50.1,48.0,94,90,79,30.05,29.96,12,1,0,0.00
2013-10-23,57.7,52.7,50.3,52.5,49.9,48.6,95,90,81,30.01,29.93,8,1,0,0.00
2013-10-24,60.0,54.2,51.4,51.2,49.6,48.6,91,85,71,30.12,30.00,7,2,0,0.00
2013-10-28,54.9,54.5,54.3,51.3,50.7,50.5,89,87,86,29.84,29.80,8,3,0,0.00
2013-10-29,55.2,55.1,55.0,50.3,50.0,49.7,84,83,82,29.88,29.87,2,1,0,0.00
2013-10-30,61.7,55.1,53.4,51.8,50.3,49.5,88,84,70,30.18,30.14,5,2,0,0.00
2013-11-3,62.3,59.7,57.2,47.7,42.7,35.3,69,54,40,30.08,29.95,11,2,0,0.00
2013-11-4,70.2,63.4,57.9,47.7,39.4,29.3,58,43,22,30.06,29.96,11,2,0,0.00
2013-11-5,67.9,61.0,45.7,49.4,41.6,35.5,84,50,34,30.24,30.08,7,1,0,0.00
2013-11-6,72.3,60.4,46.2,51.8,45.5,41.2,87,61,33,30.27,30.17,3,0,0,0.00
2013-11-7,68.6,58.5,49.2,53.3,46.9,43.2,87,67,42,30.19,30.09,6,0,0,0.00
2013-11-8,66.0,56.9,51.1,55.7,50.9,47.0,96,81,65,30.11,29.97,5,0,0,0.00
2013-11-9,68.9,54.6,44.2,51.8,47.8,42.0,94,79,52,30.07,29.99,5,1,0,0.00
2013-11-10,62.2,57.5,49.3,52.5,51.0,47.1,93,79,69,30.15,30.08,9,2,0,0.01
2013-11-11,62.2,57.2,49.5,53.4,51.3,46.4,91,81,71,30.18,30.10,5,0,0,0.00
2013-11-12,69.3,61.1,52.8,56.1,51.7,48.8,89,72,50,30.29,30.18,4,0,0,0.00
2013-11-13,65.5,56.5,46.9,56.8,52.4,44.7,95,86,70,30.27,30.12,6,1,0,0.00
2013-11-14,60.7,55.0,52.7,54.1,50.8,43.6,93,86,69,30.14,29.90,7,1,0,0.00
2013-11-15,60.7,52.4,43.6,48.8,44.0,39.7,90,74,55,29.90,29.75,9,1,0,0.00
2013-11-16,61.6,56.8,45.4,52.6,47.5,42.6,92,72,54,29.93,29.80,9,1,0,0.00
2013-11-17,60.4,54.1,49.9,50.5,48.4,46.2,91,81,63,30.11,29.95,6,1,0,0.00
2013-11-18,57.9,53.7,44.6,50.7,48.0,42.4,93,81,74,30.18,30.11,9,1,0,0.00
2013-11-19,59.0,56.9,53.2,55.6,53.2,47.2,95,88,72,30.11,29.96,5,1,0,0.69
2013-11-20,59.1,56.0,52.6,58.0,54.7,50.9,96,95,93,29.96,29.85,10,1,0,0.57
2013-11-21,62.9,58.6,51.3,50.6,36.0,27.1,94,47,27,29.99,29.92,15,2,0,0.04
2013-11-22,72.0,65.4,54.8,25.5,20.8,16.8,28,18,13,30.03,29.91,20,3,0,0.00
2013-11-23,64.5,56.7,48.4,49.0,35.3,24.7,89,49,24,30.12,29.97,15,1,0,0.00
2013-11-24,62.2,49.6,42.9,47.7,43.9,39.8,95,82,52,30.27,30.12,6,0,0,0.00
2013-11-25,64.6,53.2,39.5,49.6,45.2,36.8,91,75,55,30.35,30.26,6,1,0,0.01
2013-11-26,62.0,52.6,42.7,49.1,44.2,40.3,93,74,50,30.29,30.08,6,0,0,0.00
2013-11-27,67.5,57.6,44.5,50.2,47.2,41.9,91,69,48,30.05,29.86,6,0,0,0.00
2013-11-28,64.8,53.7,46.6,49.4,46.1,43.4,92,77,48,30.08,29.88,7,0,0,0.00
2013-11-29,64.9,55.9,43.4,52.3,47.9,39.8,91,76,50,30.23,30.10,5,1,0,0.00
2013-11-30,60.1,53.5,45.9,51.7,48.7,43.6,96,84,68,30.30,30.21,6,1,0,0.01
2013-12-1,66.2,57.3,41.8,52.0,49.0,40.2,94,75,55,30.36,30.23,5,1,0,0.01
2013-12-2,62.2,54.9,45.8,52.6,50.7,43.6,96,86,68,30.24,29.99,9,1,0,0.00
2013-12-3,55.1,50.0,42.7,53.1,37.0,32.2,93,61,47,29.98,29.87,13,2,0,0.00
2013-12-4,51.8,43.2,35.5,32.3,24.2,17.8,79,49,30,30.10,29.97,10,1,0,0.00
2013-12-5,49.7,42.8,29.7,33.3,24.7,16.8,79,51,32,30.19,30.10,8,1,0,0.00
2013-12-6,50.7,45.2,35.0,47.2,36.6,25.9,91,73,53,30.22,29.95,17,2,0,0.52
2013-12-7,49.7,43.5,36.4,45.4,31.0,26.0,91,63,43,30.28,29.94,15,2,0,0.01
2013-12-8,45.7,40.7,34.4,30.6,22.4,18.1,79,49,36,30.35,30.25,11,2,0,0.00
2013-12-9,52.1,39.1,28.0,28.8,19.4,14.0,73,49,23,30.44,30.33,16,1,0,0.00
2013-12-10,53.2,41.4,30.7,36.3,28.7,24.7,85,63,40,30.43,30.23,6,1,0,0.00
2013-12-11,59.6,43.3,32.4,37.3,30.9,27.2,83,64,33,30.26,30.18,9,1,0,0.00
2013-12-12,56.7,47.4,33.9,42.4,37.7,30.4,89,70,51,30.29,30.19,7,0,0,0.00
2013-12-13,54.4,46.4,35.8,45.5,40.4,32.7,93,80,56,30.36,30.25,5,0,0,0.00
2013-12-14,62.5,49.2,36.0,44.2,37.2,33.8,94,65,38,30.41,30.33,7,0,0,0.00
2013-12-15,63.4,52.2,36.6,43.7,39.9,33.2,89,65,42,30.38,30.25,6,0,0,0.00
2013-12-16,66.0,50.8,41.1,45.4,40.4,37.5,89,70,37,30.26,30.13,4,1,0,0.00
2013-12-17,63.4,52.6,40.8,47.3,43.5,36.6,88,72,53,30.20,30.05,4,0,0,0.00
2013-12-18,54.2,50.7,40.3,48.5,46.1,37.3,91,84,73,30.05,29.80,11,2,0,0.00
2013-12-19,61.4,54.5,43.4,43.3,33.9,18.5,80,49,27,29.96,29.75,12,2,0,0.00
2013-12-20,56.8,49.0,36.8,41.5,30.1,22.9,70,50,31,30.04,29.97,4,1,0,0.00
2013-12-21,58.7,53.0,40.2,50.1,46.1,33.7,90,78,68,30.10,30.00,10,1,0,0.00
2013-12-22,61.0,51.4,39.8,46.6,42.8,37.9,95,73,51,30.30,30.13,4,0,0,0.00
2013-12-23,59.7,50.8,39.4,46.6,42.5,36.4,89,74,60,30.41,30.30,4,0,0,0.00
2013-12-24,58.4,43.8,41.0,44.1,39.8,38.2,92,86,59,30.35,30.23,1,0,0,0.00
2013-12-25,61.1,60.2,59.2,44.9,44.6,44.3,59,56,54,30.30,30.29,2,2,0,0.00
2013-12-26,62.7,54.0,39.2,45.5,42.3,36.5,90,67,52,30.26,30.18,5,1,0,0.00
2013-12-27,48.3,44.3,38.4,42.5,39.3,35.4,89,83,76,30.26,30.14,0,0,0,0.00
2013-12-28,57.7,48.9,35.4,43.9,40.0,32.8,93,72,49,30.17,30.05,6,1,0,0.00
2013-12-29,68.6,55.1,37.5,37.7,29.0,22.1,88,43,18,30.19,30.11,10,1,0,0.00
2013-12-30,60.1,53.1,37.5,46.7,43.3,31.9,92,71,53,30.27,30.19,6,1,0,0.00
2013-12-31,59.0,48.6,38.9,45.3,42.1,36.8,94,79,54,30.29,30.17,4,0,0,0.01
2014-1-1,57.4,49.5,35.8,46.7,41.7,32.9,92,75,58,30.25,30.14,5,0,0,0.00
2014-1-2,65.3,54.8,38.3,47.3,41.8,35.1,90,63,40,30.20,30.06,4,0,0,0.00